createdAt,value
2018-11-26T00:00:35.710Z,98494.00
2018-11-26T00:03:11.358Z,98494.00
2018-11-26T00:05:42.519Z,98495.00
2018-11-26T00:08:18.934Z,98486.00
2018-11-26T00:11:29.345Z,98491.00
2018-11-26T00:14:00.380Z,98486.00
2018-11-26T00:16:31.355Z,98486.00
2018-11-26T00:19:02.318Z,98486.00
2018-11-26T00:21:33.332Z,98495.00
2018-11-26T00:24:04.329Z,98492.00
2018-11-26T00:26:35.307Z,98498.00
2018-11-26T00:29:06.269Z,98493.00
2018-11-26T00:31:37.235Z,98491.00
2018-11-26T00:34:08.190Z,98490.00
2018-11-26T00:36:39.160Z,98493.00
2018-11-26T00:39:11.828Z,98488.00
2018-11-26T00:41:42.807Z,98490.00
2018-11-26T00:44:13.774Z,98493.00
2018-11-26T00:46:44.739Z,98486.00
2018-11-26T00:49:15.698Z,98494.00
2018-11-26T00:51:46.680Z,98493.00
2018-11-26T00:54:17.640Z,98493.00
2018-11-26T00:56:48.611Z,98491.00
2018-11-26T00:59:19.579Z,98487.00
2018-11-26T01:01:50.567Z,98487.00
2018-11-26T01:04:21.620Z,98492.00
2018-11-26T01:06:52.682Z,98494.00
2018-11-26T01:09:23.641Z,98487.00
2018-11-26T01:11:54.630Z,98487.00
2018-11-26T01:14:25.587Z,98487.00
2018-11-26T01:16:56.638Z,98480.00
2018-11-26T01:19:27.686Z,98477.00
2018-11-26T01:21:58.702Z,98479.00
2018-11-26T01:24:29.655Z,98477.00
2018-11-26T01:27:00.653Z,98477.00
2018-11-26T01:29:31.606Z,98480.00
2018-11-26T01:32:02.583Z,98483.00
2018-11-26T01:34:33.559Z,98479.00
2018-11-26T01:37:04.548Z,98483.00
2018-11-26T01:39:35.528Z,98489.00
2018-11-26T01:42:06.505Z,98480.00
2018-11-26T01:44:37.462Z,98484.00
2018-11-26T01:47:08.460Z,98490.00
2018-11-26T01:49:39.442Z,98491.00
2018-11-26T01:52:10.514Z,98493.00
2018-11-26T01:54:41.873Z,98491.00
2018-11-26T01:57:12.862Z,98489.00
2018-11-26T01:59:43.815Z,98486.00
2018-11-26T02:02:14.809Z,98486.00
2018-11-26T02:04:45.767Z,98489.00
2018-11-26T02:07:16.762Z,98487.00
2018-11-26T02:09:47.759Z,98483.00
2018-11-26T02:12:18.755Z,98485.00
2018-11-26T02:14:49.714Z,98483.00
2018-11-26T02:17:20.719Z,98488.00
2018-11-26T02:19:51.713Z,98486.00
2018-11-26T02:22:22.721Z,98491.00
2018-11-26T02:24:53.669Z,98491.00
2018-11-26T02:27:24.662Z,98488.00
2018-11-26T02:29:55.705Z,98486.00
2018-11-26T02:32:26.694Z,98482.00
2018-11-26T02:34:57.655Z,98486.00
2018-11-26T02:37:28.641Z,98485.00
2018-11-26T02:39:59.626Z,98479.00
2018-11-26T02:42:30.633Z,98481.00
2018-11-26T02:45:01.630Z,98480.00
2018-11-26T02:47:32.588Z,98481.00
2018-11-26T02:50:03.555Z,98478.00
2018-11-26T02:52:34.530Z,98479.00
2018-11-26T02:55:05.903Z,98469.00
2018-11-26T02:57:36.878Z,98476.00
2018-11-26T03:00:11.017Z,98476.00
2018-11-26T03:02:41.995Z,98475.00
2018-11-26T03:05:17.017Z,98475.00
2018-11-26T03:07:48.009Z,98472.00
2018-11-26T03:10:18.975Z,98468.00
2018-11-26T03:12:49.966Z,98472.00
2018-11-26T03:15:20.981Z,98473.00
2018-11-26T03:17:51.959Z,98471.00
2018-11-26T03:20:22.915Z,98472.00
2018-11-26T03:22:53.937Z,98467.00
2018-11-26T03:25:24.887Z,98471.00
2018-11-26T03:27:55.877Z,98474.00
2018-11-26T03:30:26.835Z,98471.00
2018-11-26T03:32:57.971Z,98467.00
2018-11-26T03:35:28.935Z,98463.00
2018-11-26T03:37:59.927Z,98470.00
2018-11-26T03:40:30.950Z,98467.00
2018-11-26T03:43:01.931Z,98472.00
2018-11-26T03:45:32.886Z,98472.00
2018-11-26T03:48:03.875Z,98477.00
2018-11-26T03:50:34.843Z,98483.00
2018-11-26T03:53:06.504Z,98482.00
2018-11-26T03:55:37.957Z,98484.00
2018-11-26T03:58:15.518Z,98484.00
2018-11-26T04:00:46.518Z,98481.00
2018-11-26T04:03:17.497Z,98485.00
2018-11-26T04:05:48.482Z,98478.00
2018-11-26T04:08:19.491Z,98479.00
2018-11-26T04:10:50.451Z,98471.00
2018-11-26T04:13:21.514Z,98471.00
2018-11-26T04:15:52.482Z,98484.00
2018-11-26T04:18:23.474Z,98479.00
2018-11-26T04:20:54.471Z,98474.00
2018-11-26T04:23:25.479Z,98473.00
2018-11-26T04:25:56.451Z,98477.00
2018-11-26T04:28:27.451Z,98476.00
2018-11-26T04:30:58.416Z,98470.00
2018-11-26T04:33:29.421Z,98473.00
2018-11-26T04:36:00.393Z,98473.00
2018-11-26T04:38:31.386Z,98472.00
2018-11-26T04:41:02.388Z,98472.00
2018-11-26T04:43:33.428Z,98479.00
2018-11-26T04:46:04.431Z,98478.00
2018-11-26T04:48:35.433Z,98482.00
2018-11-26T04:51:06.785Z,98481.00
2018-11-26T04:53:37.782Z,98474.00
2018-11-26T04:56:08.834Z,98473.00
2018-11-26T04:58:39.870Z,98472.00
2018-11-26T05:01:11.700Z,98472.00
2018-11-26T05:03:42.722Z,98472.00
2018-11-26T05:06:13.695Z,98473.00
2018-11-26T05:08:44.692Z,98473.00
2018-11-26T05:11:15.684Z,98473.00
2018-11-26T05:13:46.682Z,98467.00
2018-11-26T05:16:17.661Z,98461.00
2018-11-26T05:18:48.671Z,98458.00
2018-11-26T05:21:19.662Z,98454.00
2018-11-26T05:23:50.857Z,98459.00
2018-11-26T05:26:21.896Z,98460.00
2018-11-26T05:28:53.308Z,98454.00
2018-11-26T05:31:24.439Z,98462.00
2018-11-26T05:33:55.439Z,98467.00
2018-11-26T05:36:26.422Z,98475.00
2018-11-26T05:38:57.419Z,98473.00
2018-11-26T05:41:28.438Z,98475.00
2018-11-26T05:43:59.455Z,98474.00
2018-11-26T05:46:30.444Z,98473.00
2018-11-26T05:49:01.457Z,98468.00
2018-11-26T05:51:32.436Z,98465.00
2018-11-26T05:54:03.448Z,98468.00
2018-11-26T05:56:34.455Z,98469.00
2018-11-26T05:59:05.650Z,98468.00
2018-11-26T06:01:36.647Z,98469.00
2018-11-26T06:04:07.782Z,98473.00
2018-11-26T06:06:38.831Z,98472.00
2018-11-26T06:09:11.838Z,98476.00
2018-11-26T06:11:42.857Z,98473.00
2018-11-26T06:14:13.933Z,98473.00
2018-11-26T06:16:45.805Z,98469.00
2018-11-26T06:19:15.903Z,98472.00
2018-11-26T06:21:46.886Z,98470.00
2018-11-26T06:24:17.885Z,98474.00
2018-11-26T06:26:48.865Z,98479.00
2018-11-26T06:29:19.880Z,98477.00
2018-11-26T06:31:50.858Z,98479.00
2018-11-26T06:34:21.847Z,98481.00
2018-11-26T06:36:52.833Z,98480.00
2018-11-26T06:39:23.826Z,98479.00
2018-11-26T06:41:54.795Z,98485.00
2018-11-26T06:44:25.815Z,98484.00
2018-11-26T06:46:56.782Z,98486.00
2018-11-26T06:49:27.794Z,98489.00
2018-11-26T06:51:58.785Z,98491.00
2018-11-26T06:54:29.796Z,98490.00
2018-11-26T06:57:00.803Z,98490.00
2018-11-26T06:59:31.799Z,98496.00
2018-11-26T07:02:02.776Z,98492.00
2018-11-26T07:04:33.843Z,98498.00
2018-11-26T07:07:05.082Z,98497.00
2018-11-26T07:09:36.202Z,98502.00
2018-11-26T07:12:07.185Z,98504.00
2018-11-26T07:14:38.195Z,98507.00
2018-11-26T07:17:09.173Z,98512.00
2018-11-26T07:19:40.189Z,98514.00
2018-11-26T07:22:11.192Z,98514.00
2018-11-26T07:24:42.225Z,98517.00
2018-11-26T07:27:13.195Z,98525.00
2018-11-26T07:29:44.219Z,98521.00
2018-11-26T07:32:15.191Z,98527.00
2018-11-26T07:34:46.206Z,98522.00
2018-11-26T07:37:17.216Z,98527.00
2018-11-26T07:39:48.385Z,98531.00
2018-11-26T07:42:19.355Z,98540.00
2018-11-26T07:44:50.495Z,98534.00
2018-11-26T07:47:21.515Z,98533.00
2018-11-26T07:49:52.536Z,98536.00
2018-11-26T07:52:23.524Z,98542.00
2018-11-26T07:54:54.612Z,98541.00
2018-11-26T07:57:25.599Z,98543.00
2018-11-26T07:59:56.822Z,98548.00
2018-11-26T08:02:27.812Z,98547.00
2018-11-26T08:04:58.814Z,98553.00
2018-11-26T08:07:29.778Z,98555.00
2018-11-26T08:10:00.811Z,98561.00
2018-11-26T08:12:31.797Z,98560.00
2018-11-26T08:15:02.781Z,98559.00
2018-11-26T08:17:33.985Z,98555.00
2018-11-26T08:20:06.037Z,98557.00
2018-11-26T08:22:37.154Z,98555.00
2018-11-26T08:25:11.504Z,98555.00
2018-11-26T08:27:43.654Z,98558.00
2018-11-26T08:30:20.211Z,98558.00
2018-11-26T08:32:58.739Z,98559.00
2018-11-26T08:35:30.512Z,98552.00
2018-11-26T08:38:06.799Z,98555.00
2018-11-26T08:40:43.061Z,98562.00
2018-11-26T08:43:20.535Z,98566.00
2018-11-26T08:45:56.391Z,98570.00
2018-11-26T08:48:28.110Z,98566.00
2018-11-26T08:51:01.580Z,98562.00
2018-11-26T08:53:32.622Z,98567.00
2018-11-26T08:56:03.631Z,98560.00
2018-11-26T08:58:34.605Z,98570.00
2018-11-26T09:01:06.955Z,98575.00
2018-11-26T09:03:43.132Z,98571.00
2018-11-26T09:06:14.408Z,98569.00
2018-11-26T09:08:45.390Z,98573.00
2018-11-26T09:11:16.451Z,98574.00
2018-11-26T09:13:47.418Z,98582.00
2018-11-26T09:16:18.470Z,98588.00
2018-11-26T09:18:49.463Z,98589.00
2018-11-26T09:21:20.491Z,98588.00
2018-11-26T09:23:51.480Z,98591.00
2018-11-26T09:26:22.513Z,98590.00
2018-11-26T09:28:53.524Z,98588.00
2018-11-26T09:31:24.584Z,98591.00
2018-11-26T09:33:55.564Z,98589.00
2018-11-26T09:36:26.560Z,98586.00
2018-11-26T09:38:57.534Z,98588.00
2018-11-26T09:41:28.541Z,98591.00
2018-11-26T09:43:59.527Z,98590.00
2018-11-26T09:46:30.523Z,98586.00
2018-11-26T09:49:01.483Z,98589.00
2018-11-26T09:51:32.558Z,98585.00
2018-11-26T09:54:03.465Z,98581.00
2018-11-26T09:56:34.461Z,98586.00
2018-11-26T09:59:05.693Z,98584.00
2018-11-26T10:01:36.684Z,98585.00
2018-11-26T10:04:07.711Z,98583.00
2018-11-26T10:06:38.717Z,98581.00
2018-11-26T10:09:11.051Z,98584.00
2018-11-26T10:11:42.089Z,98584.00
2018-11-26T10:14:13.081Z,98580.00
2018-11-26T10:16:44.074Z,98582.00
2018-11-26T10:19:15.070Z,98579.00
2018-11-26T10:21:46.074Z,98581.00
2018-11-26T10:24:17.127Z,98582.00
2018-11-26T10:26:48.121Z,98579.00
2018-11-26T10:29:19.081Z,98584.00
2018-11-26T10:31:50.057Z,98578.00
2018-11-26T10:34:21.031Z,98581.00
2018-11-26T10:36:52.029Z,98577.00
2018-11-26T10:39:22.992Z,98580.00
2018-11-26T10:41:53.996Z,98580.00
2018-11-26T10:44:24.987Z,98585.00
2018-11-26T10:46:55.962Z,98578.00
2018-11-26T10:49:26.955Z,98577.00
2018-11-26T10:51:57.952Z,98586.00
2018-11-26T10:54:28.923Z,98581.00
2018-11-26T10:56:59.924Z,98583.00
2018-11-26T10:59:30.883Z,98580.00
2018-11-26T11:02:01.889Z,98573.00
2018-11-26T11:04:32.882Z,98570.00
2018-11-26T11:07:03.898Z,98567.00
2018-11-26T11:09:34.943Z,98569.00
2018-11-26T11:12:05.856Z,98563.00
2018-11-26T11:14:36.892Z,98562.00
2018-11-26T11:17:07.891Z,98563.00
2018-11-26T11:19:39.612Z,98563.00
2018-11-26T11:22:10.248Z,98562.00
2018-11-26T11:24:41.243Z,98570.00
2018-11-26T11:27:12.498Z,98578.00
2018-11-26T11:29:43.451Z,98573.00
2018-11-26T11:32:14.484Z,98571.00
2018-11-26T11:34:45.471Z,98571.00
2018-11-26T11:37:16.521Z,98575.00
2018-11-26T11:39:47.504Z,98568.00
2018-11-26T11:42:18.509Z,98578.00
2018-11-26T11:44:49.476Z,98571.00
2018-11-26T11:47:20.480Z,98576.00
2018-11-26T11:49:51.450Z,98576.00
2018-11-26T11:52:22.461Z,98581.00
2018-11-26T11:54:53.432Z,98587.00
2018-11-26T11:57:24.416Z,98583.00
2018-11-26T11:59:55.403Z,98578.00
2018-11-26T12:02:26.480Z,98579.00
2018-11-26T12:04:57.476Z,98583.00
2018-11-26T12:07:28.520Z,98576.00
2018-11-26T12:09:59.484Z,98580.00
2018-11-26T12:12:30.484Z,98575.00
2018-11-26T12:15:01.468Z,98571.00
2018-11-26T12:17:32.451Z,98566.00
2018-11-26T12:20:03.504Z,98567.00
2018-11-26T12:22:34.536Z,98571.00
2018-11-26T12:25:06.521Z,98571.00
2018-11-26T12:27:37.553Z,98569.00
2018-11-26T12:30:16.850Z,98568.00
2018-11-26T12:32:47.863Z,98571.00
2018-11-26T12:35:18.860Z,98578.00
2018-11-26T12:37:49.908Z,98580.00
2018-11-26T12:40:23.447Z,98579.00
2018-11-26T12:42:56.346Z,98583.00
2018-11-26T12:45:30.270Z,98584.00
2018-11-26T12:48:01.480Z,98583.00
2018-11-26T12:50:32.457Z,98590.00
2018-11-26T12:53:03.496Z,98591.00
2018-11-26T12:55:36.036Z,98595.00
2018-11-26T12:58:08.472Z,98595.00
2018-11-26T13:00:39.726Z,98596.00
2018-11-26T13:03:13.587Z,98595.00
2018-11-26T13:05:44.611Z,98598.00
2018-11-26T13:08:15.664Z,98600.00
2018-11-26T13:10:46.665Z,98596.00
2018-11-26T13:13:17.664Z,98598.00
2018-11-26T13:15:48.643Z,98596.00
2018-11-26T13:18:19.643Z,98598.00
2018-11-26T13:20:50.620Z,98601.00
2018-11-26T13:23:21.621Z,98600.00
2018-11-26T13:25:52.601Z,98603.00
2018-11-26T13:28:23.613Z,98598.00
2018-11-26T13:30:54.601Z,98599.00
2018-11-26T13:33:25.609Z,98599.00
2018-11-26T13:35:56.571Z,98599.00
2018-11-26T13:38:27.623Z,98596.00
2018-11-26T13:40:58.829Z,98597.00
2018-11-26T13:43:29.866Z,98604.00
2018-11-26T13:46:01.146Z,98612.00
2018-11-26T13:48:32.156Z,98616.00
2018-11-26T13:51:03.179Z,98619.00
2018-11-26T13:53:34.260Z,98625.00
2018-11-26T13:56:05.242Z,98621.00
2018-11-26T13:58:36.242Z,98628.00
2018-11-26T14:01:07.490Z,98626.00
2018-11-26T14:03:38.953Z,98630.00
2018-11-26T14:06:10.996Z,98631.00
2018-11-26T14:08:42.116Z,98630.00
2018-11-26T14:11:13.111Z,98633.00
2018-11-26T14:13:44.971Z,98632.00
2018-11-26T14:16:15.948Z,98636.00
2018-11-26T14:18:46.956Z,98638.00
2018-11-26T14:21:17.963Z,98638.00
2018-11-26T14:23:48.993Z,98640.00
2018-11-26T14:26:19.985Z,98639.00
2018-11-26T14:28:50.994Z,98641.00
2018-11-26T14:31:21.988Z,98646.00
2018-11-26T14:33:53.125Z,98646.00
2018-11-26T14:36:24.142Z,98655.00
2018-11-26T14:38:55.145Z,98657.00
2018-11-26T14:41:26.140Z,98656.00
2018-11-26T14:43:57.132Z,98667.00
2018-11-26T14:46:28.173Z,98669.00
2018-11-26T14:48:59.140Z,98673.00
2018-11-26T14:51:30.151Z,98675.00
2018-11-26T14:54:01.122Z,98679.00
2018-11-26T14:56:32.119Z,98682.00
2018-11-26T14:59:03.084Z,98685.00
2018-11-26T15:01:34.097Z,98683.00
2018-11-26T15:04:05.096Z,98687.00
2018-11-26T15:06:36.100Z,98689.00
2018-11-26T15:09:09.524Z,98687.00
2018-11-26T15:11:40.503Z,98694.00
2018-11-26T15:14:11.601Z,98694.00
2018-11-26T15:16:42.595Z,98696.00
2018-11-26T15:19:13.680Z,98700.00
2018-11-26T15:21:44.673Z,98706.00
2018-11-26T15:24:15.737Z,98707.00
2018-11-26T15:26:46.802Z,98712.00
2018-11-26T15:29:18.411Z,98716.00
2018-11-26T15:31:50.327Z,98719.00
2018-11-26T15:34:20.565Z,98722.00
2018-11-26T15:36:51.586Z,98719.00
2018-11-26T15:39:22.624Z,98725.00
2018-11-26T15:41:53.641Z,98729.00
2018-11-26T15:44:24.641Z,98729.00
2018-11-26T15:46:56.117Z,98729.00
2018-11-26T15:49:27.114Z,98733.00
2018-11-26T15:51:58.080Z,98732.00
2018-11-26T15:54:29.082Z,98736.00
2018-11-26T15:57:00.067Z,98733.00
2018-11-26T15:59:31.157Z,98732.00
2018-11-26T16:02:02.176Z,98732.00
2018-11-26T16:04:33.168Z,98734.00
2018-11-26T16:07:05.261Z,98734.00
2018-11-26T16:09:36.597Z,98736.00
2018-11-26T16:12:11.276Z,98745.00
2018-11-26T16:14:38.588Z,98741.00
2018-11-26T16:17:09.589Z,98743.00
2018-11-26T16:19:40.588Z,98747.00
2018-11-26T16:22:11.579Z,98753.00
2018-11-26T16:24:42.610Z,98754.00
2018-11-26T16:27:13.576Z,98757.00
2018-11-26T16:29:44.632Z,98758.00
2018-11-26T16:32:15.600Z,98763.00
2018-11-26T16:34:47.160Z,98764.00
2018-11-26T16:37:18.204Z,98764.00
2018-11-26T16:39:49.205Z,98771.00
2018-11-26T16:42:20.174Z,98769.00
2018-11-26T16:44:51.181Z,98777.00
2018-11-26T16:47:22.151Z,98782.00
2018-11-26T16:49:53.140Z,98779.00
2018-11-26T16:52:24.121Z,98786.00
2018-11-26T16:54:55.148Z,98793.00
2018-11-26T16:57:26.131Z,98799.00
2018-11-26T16:59:57.112Z,98798.00
2018-11-26T17:02:28.089Z,98799.00
2018-11-26T17:04:59.076Z,98803.00
2018-11-26T17:07:30.052Z,98807.00
2018-11-26T17:10:01.047Z,98810.00
2018-11-26T17:12:34.944Z,98808.00
2018-11-26T17:15:09.936Z,98811.00
2018-11-26T17:17:40.918Z,98809.00
2018-11-26T17:20:19.077Z,98813.00
2018-11-26T17:22:50.076Z,98811.00
2018-11-26T17:25:21.124Z,98816.00
2018-11-26T17:27:52.107Z,98815.00
2018-11-26T17:30:25.117Z,98817.00
2018-11-26T17:32:58.167Z,98819.00
2018-11-26T17:35:29.841Z,98817.00
2018-11-26T17:38:00.829Z,98820.00
2018-11-26T17:40:31.844Z,98824.00
2018-11-26T17:43:02.824Z,98824.00
2018-11-26T17:45:33.885Z,98827.00
2018-11-26T17:48:05.256Z,98830.00
2018-11-26T17:50:45.122Z,98829.00
2018-11-26T17:53:19.032Z,98838.00
2018-11-26T17:55:52.083Z,98838.00
2018-11-26T17:58:26.862Z,98841.00
2018-11-26T18:01:08.332Z,98846.00
2018-11-26T18:03:47.769Z,98855.00
2018-11-26T18:06:20.109Z,98861.00
2018-11-26T18:08:51.441Z,98865.00
2018-11-26T18:11:22.699Z,98868.00
2018-11-26T18:13:53.722Z,98868.00
2018-11-26T18:16:24.727Z,98868.00
2018-11-26T18:18:55.696Z,98874.00
2018-11-26T18:21:27.695Z,98877.00
2018-11-26T18:24:05.601Z,98872.00
2018-11-26T18:26:37.114Z,98881.00
2018-11-26T18:29:09.325Z,98880.00
2018-11-26T18:31:40.323Z,98886.00
2018-11-26T18:34:11.288Z,98883.00
2018-11-26T18:36:42.285Z,98887.00
2018-11-26T18:39:13.278Z,98894.00
2018-11-26T18:41:44.268Z,98895.00
2018-11-26T18:44:16.706Z,98897.00
2018-11-26T18:46:48.137Z,98908.00
2018-11-26T18:49:20.944Z,98911.00
2018-11-26T18:51:51.937Z,98911.00
2018-11-26T18:54:24.236Z,98913.00
2018-11-26T18:56:56.380Z,98913.00
2018-11-26T18:59:28.216Z,98914.00
2018-11-26T19:02:01.188Z,98914.00
2018-11-26T19:04:33.025Z,98910.00
2018-11-26T19:07:04.375Z,98918.00
2018-11-26T19:09:37.274Z,98918.00
2018-11-26T19:12:08.401Z,98922.00
2018-11-26T19:14:39.813Z,98925.00
2018-11-26T19:17:10.834Z,98925.00
2018-11-26T19:19:42.237Z,98926.00
2018-11-26T19:22:13.384Z,98930.00
2018-11-26T19:24:44.733Z,98935.00
2018-11-26T19:27:15.607Z,98939.00
2018-11-26T19:29:47.775Z,98939.00
2018-11-26T19:32:18.864Z,98948.00
2018-11-26T19:34:49.883Z,98943.00
2018-11-26T19:37:21.109Z,98952.00
2018-11-26T19:39:52.263Z,98948.00
2018-11-26T19:42:23.589Z,98951.00
2018-11-26T19:44:54.512Z,98951.00
2018-11-26T19:47:25.708Z,98956.00
2018-11-26T19:50:02.232Z,98959.00
2018-11-26T19:52:28.123Z,98962.00
2018-11-26T19:55:00.063Z,98961.00
2018-11-26T19:57:31.126Z,98961.00
2018-11-26T20:00:02.119Z,98960.00
2018-11-26T20:02:33.142Z,98969.00
2018-11-26T20:05:05.217Z,98971.00
2018-11-26T20:07:36.276Z,98974.00
2018-11-26T20:10:09.732Z,98978.00
2018-11-26T20:12:40.733Z,98984.00
2018-11-26T20:15:14.592Z,98986.00
2018-11-26T20:17:45.641Z,98984.00
2018-11-26T20:20:16.654Z,98988.00
2018-11-26T20:22:47.706Z,98994.00
2018-11-26T20:25:18.689Z,98988.00
2018-11-26T20:27:49.784Z,98995.00
2018-11-26T20:30:20.780Z,98995.00
2018-11-26T20:32:51.816Z,99000.00
2018-11-26T20:35:22.824Z,99003.00
2018-11-26T20:37:53.831Z,99009.00
2018-11-26T20:40:24.832Z,99012.00
2018-11-26T20:42:57.136Z,99013.00
2018-11-26T20:45:28.140Z,99019.00
2018-11-26T20:48:05.347Z,99023.00
2018-11-26T20:50:36.347Z,99028.00
2018-11-26T20:53:07.448Z,99026.00
2018-11-26T20:55:38.436Z,99030.00
2018-11-26T20:58:09.580Z,99031.00
2018-11-26T21:00:41.776Z,99037.00
2018-11-26T21:03:12.796Z,99039.00
2018-11-26T21:05:43.784Z,99045.00
2018-11-26T21:08:14.797Z,99046.00
2018-11-26T21:10:45.798Z,99046.00
2018-11-26T21:13:17.128Z,99051.00
2018-11-26T21:15:47.852Z,99049.00
2018-11-26T21:18:18.876Z,99052.00
2018-11-26T21:20:51.421Z,99054.00
2018-11-26T21:23:27.056Z,99058.00
2018-11-26T21:26:00.461Z,99054.00
2018-11-26T21:28:31.465Z,99057.00
2018-11-26T21:31:02.452Z,99054.00
2018-11-26T21:33:33.528Z,99062.00
2018-11-26T21:36:04.521Z,99062.00
2018-11-26T21:38:38.567Z,99061.00
2018-11-26T21:41:09.532Z,99062.00
2018-11-26T21:43:40.557Z,99064.00
2018-11-26T21:46:12.130Z,99062.00
2018-11-26T21:48:42.565Z,99065.00
2018-11-26T21:51:13.552Z,99065.00
2018-11-26T21:53:44.572Z,99068.00
2018-11-26T21:56:15.566Z,99071.00
2018-11-26T21:58:46.602Z,99072.00
2018-11-26T22:01:17.600Z,99077.00
2018-11-26T22:03:48.821Z,99076.00
2018-11-26T22:06:19.796Z,99087.00
2018-11-26T22:08:50.824Z,99082.00
2018-11-26T22:11:21.849Z,99090.00
2018-11-26T22:13:52.863Z,99090.00
2018-11-26T22:16:23.852Z,99092.00
2018-11-26T22:18:54.930Z,99097.00
2018-11-26T22:21:25.935Z,99095.00
2018-11-26T22:23:56.951Z,99099.00
2018-11-26T22:26:27.937Z,99104.00
2018-11-26T22:28:58.965Z,99101.00
2018-11-26T22:31:29.956Z,99103.00
2018-11-26T22:34:00.974Z,99104.00
2018-11-26T22:36:31.964Z,99106.00
2018-11-26T22:39:03.021Z,99116.00
2018-11-26T22:41:34.004Z,99118.00
2018-11-26T22:44:05.072Z,99121.00
2018-11-26T22:46:36.053Z,99118.00
2018-11-26T22:49:07.065Z,99123.00
2018-11-26T22:51:38.048Z,99122.00
2018-11-26T22:54:09.073Z,99127.00
2018-11-26T22:56:40.068Z,99129.00
2018-11-26T22:59:11.188Z,99133.00
2018-11-26T23:01:42.185Z,99132.00
2018-11-26T23:04:13.198Z,99131.00
2018-11-26T23:06:44.198Z,99134.00
2018-11-26T23:09:15.217Z,99143.00
2018-11-26T23:11:46.199Z,99135.00
2018-11-26T23:14:17.219Z,99134.00
2018-11-26T23:16:48.201Z,99139.00
2018-11-26T23:19:19.211Z,99138.00
2018-11-26T23:21:50.511Z,99145.00
2018-11-26T23:24:22.157Z,99140.00
2018-11-26T23:26:52.228Z,99147.00
2018-11-26T23:29:23.244Z,99152.00
2018-11-26T23:31:54.247Z,99147.00
2018-11-26T23:34:25.270Z,99146.00
2018-11-26T23:36:56.276Z,99152.00
2018-11-26T23:39:27.406Z,99151.00
2018-11-26T23:41:58.265Z,99156.00
2018-11-26T23:44:29.308Z,99157.00
2018-11-26T23:47:00.301Z,99158.00
2018-11-26T23:49:31.380Z,99161.00
2018-11-26T23:52:02.368Z,99160.00
2018-11-26T23:54:33.391Z,99164.00
2018-11-26T23:57:04.380Z,99161.00
2018-11-26T23:59:35.396Z,99162.00
